createdAt,value
2022-12-31T00:02:45.663Z,95.64
2022-12-31T00:05:47.502Z,95.64
2022-12-31T00:08:51.213Z,95.76
2022-12-31T00:11:53.083Z,95.91
2022-12-31T00:14:54.873Z,95.61
2022-12-31T00:17:56.674Z,95.77
2022-12-31T00:20:58.562Z,95.69
2022-12-31T00:24:01.022Z,95.94
2022-12-31T00:27:03.093Z,96.25
2022-12-31T00:30:05.424Z,96.24
2022-12-31T00:33:07.448Z,96.32
2022-12-31T00:36:12.518Z,96.29
2022-12-31T00:39:14.452Z,95.96
2022-12-31T00:42:16.350Z,96.13
2022-12-31T00:45:18.173Z,96.29
2022-12-31T00:48:20.048Z,96.66
2022-12-31T00:51:24.047Z,96.06
2022-12-31T00:54:25.950Z,95.95
2022-12-31T00:57:27.807Z,95.83
2022-12-31T01:00:29.643Z,95.63
2022-12-31T01:03:31.635Z,95.96
2022-12-31T01:06:33.700Z,95.73
2022-12-31T01:09:35.566Z,95.83
2022-12-31T01:12:37.425Z,95.26
2022-12-31T01:15:39.561Z,95.49
2022-12-31T01:18:42.115Z,95.63
2022-12-31T01:21:45.457Z,95.48
2022-12-31T01:24:47.310Z,95.57
2022-12-31T01:27:49.097Z,95.17
2022-12-31T01:30:51.022Z,95.31
2022-12-31T01:33:53.748Z,95.43
2022-12-31T01:36:55.664Z,95.32
2022-12-31T01:39:57.510Z,95.41
2022-12-31T01:42:59.361Z,95.14
2022-12-31T01:46:01.236Z,95.08
2022-12-31T01:49:08.784Z,95.31
2022-12-31T01:52:17.808Z,95.20
2022-12-31T01:55:30.457Z,95.08
2022-12-31T01:58:39.418Z,94.89
2022-12-31T02:01:41.350Z,94.79
2022-12-31T02:04:43.532Z,95.16
2022-12-31T02:07:47.477Z,94.73
2022-12-31T02:10:49.338Z,94.76
2022-12-31T02:13:58.159Z,94.59
2022-12-31T02:17:07.492Z,94.51
2022-12-31T02:20:37.349Z,94.61
2022-12-31T02:23:57.376Z,94.49
2022-12-31T02:27:10.386Z,94.59
2022-12-31T02:30:22.898Z,94.06
2022-12-31T02:33:33.032Z,94.07
2022-12-31T02:36:38.999Z,94.47
2022-12-31T02:39:43.273Z,93.89
2022-12-31T02:42:48.615Z,93.84
2022-12-31T02:46:14.906Z,93.91
2022-12-31T02:49:21.457Z,93.61
2022-12-31T02:52:39.955Z,93.57
2022-12-31T02:56:22.324Z,93.50
2022-12-31T03:00:12.160Z,93.57
2022-12-31T03:03:14.208Z,94.10
2022-12-31T03:06:16.236Z,94.05
2022-12-31T03:09:18.122Z,93.87
2022-12-31T03:12:41.034Z,93.71
2022-12-31T03:15:42.993Z,93.93
2022-12-31T03:19:03.450Z,94.14
2022-12-31T03:22:23.999Z,93.89
2022-12-31T03:25:35.420Z,94.27
2022-12-31T03:28:39.555Z,93.66
2022-12-31T03:31:41.511Z,94.02
2022-12-31T03:34:43.595Z,93.82
2022-12-31T03:37:45.433Z,93.65
2022-12-31T03:40:50.623Z,93.91
2022-12-31T03:43:52.468Z,93.64
2022-12-31T03:46:54.312Z,93.62
2022-12-31T03:49:56.184Z,93.38
2022-12-31T03:52:58.545Z,93.32
2022-12-31T03:56:00.486Z,93.18
2022-12-31T03:59:02.312Z,93.55
2022-12-31T04:02:04.947Z,93.48
2022-12-31T04:05:07.681Z,93.48
2022-12-31T04:08:09.634Z,93.06
2022-12-31T04:11:14.731Z,93.07
2022-12-31T04:14:20.876Z,93.10
2022-12-31T04:17:22.724Z,93.67
2022-12-31T04:20:24.666Z,93.51
2022-12-31T04:23:26.515Z,93.48
2022-12-31T04:26:28.330Z,94.40
2022-12-31T04:29:30.138Z,94.22
2022-12-31T04:32:31.975Z,94.02
2022-12-31T04:35:33.811Z,94.40
2022-12-31T04:38:35.792Z,94.70
2022-12-31T04:41:37.611Z,94.76
2022-12-31T04:44:39.406Z,94.74
2022-12-31T04:47:41.280Z,95.21
2022-12-31T04:50:43.100Z,95.68
2022-12-31T04:53:45.349Z,95.47
2022-12-31T04:56:47.162Z,95.34
2022-12-31T04:59:49.053Z,96.02
2022-12-31T05:02:50.944Z,95.49
2022-12-31T05:05:53.916Z,96.07
2022-12-31T05:08:55.856Z,96.27
2022-12-31T05:11:57.744Z,96.97
2022-12-31T05:14:59.614Z,96.78
2022-12-31T05:18:01.531Z,96.64
2022-12-31T05:21:03.590Z,96.70
2022-12-31T05:24:05.958Z,97.27
2022-12-31T05:27:07.796Z,97.58
2022-12-31T05:30:10.132Z,97.45
2022-12-31T05:33:12.039Z,97.92
2022-12-31T05:36:14.714Z,97.82
2022-12-31T05:39:17.915Z,97.43
2022-12-31T05:42:19.791Z,97.95
2022-12-31T05:45:26.799Z,97.36
2022-12-31T05:48:32.479Z,98.68
2022-12-31T05:51:34.366Z,99.24
2022-12-31T05:54:36.727Z,99.52
2022-12-31T05:57:39.578Z,99.06
2022-12-31T06:00:42.848Z,98.70
2022-12-31T06:03:44.740Z,98.44
2022-12-31T06:06:46.678Z,98.86
2022-12-31T06:09:49.086Z,98.53
2022-12-31T06:12:50.849Z,98.70
2022-12-31T06:15:52.651Z,98.45
2022-12-31T06:18:54.773Z,98.14
2022-12-31T06:21:56.768Z,98.57
2022-12-31T06:24:58.572Z,98.50
2022-12-31T06:28:00.573Z,98.07
2022-12-31T06:31:07.901Z,97.94
2022-12-31T06:34:10.406Z,97.61
2022-12-31T06:37:12.316Z,97.74
2022-12-31T06:40:14.699Z,97.78
2022-12-31T06:43:16.477Z,97.72
2022-12-31T06:46:18.823Z,97.64
2022-12-31T06:49:20.803Z,97.31
2022-12-31T06:52:22.927Z,97.43
2022-12-31T06:55:25.225Z,97.11
2022-12-31T06:58:27.346Z,97.89
2022-12-31T07:01:44.684Z,97.92
2022-12-31T07:05:28.229Z,97.29
2022-12-31T07:09:14.581Z,97.22
2022-12-31T07:12:45.673Z,96.90
2022-12-31T07:16:01.436Z,97.00
2022-12-31T07:19:24.255Z,97.20
2022-12-31T07:22:26.592Z,97.21
2022-12-31T07:25:28.895Z,97.01
2022-12-31T07:28:42.492Z,96.99
2022-12-31T07:31:50.116Z,96.72
2022-12-31T07:35:10.964Z,97.02
2022-12-31T07:38:47.862Z,96.87
2022-12-31T07:42:14.125Z,96.39
2022-12-31T07:45:28.556Z,96.69
2022-12-31T07:48:31.061Z,96.39
2022-12-31T07:51:34.785Z,96.26
2022-12-31T07:54:36.592Z,95.97
2022-12-31T07:58:09.136Z,95.63
2022-12-31T08:01:19.981Z,95.85
2022-12-31T08:04:40.805Z,95.64
2022-12-31T08:07:48.091Z,95.44
2022-12-31T08:11:16.898Z,95.30
2022-12-31T08:14:19.675Z,95.33
2022-12-31T08:17:21.797Z,95.05
2022-12-31T08:20:23.704Z,94.59
2022-12-31T08:23:33.880Z,94.94
2022-12-31T08:26:53.171Z,94.64
2022-12-31T08:30:01.677Z,94.59
2022-12-31T08:33:22.124Z,94.19
2022-12-31T08:36:38.960Z,94.05
2022-12-31T08:40:03.402Z,94.21
2022-12-31T08:43:49.655Z,93.99
2022-12-31T08:47:03.437Z,93.56
2022-12-31T08:50:06.864Z,93.47
2022-12-31T08:53:08.916Z,93.16
2022-12-31T08:56:17.413Z,93.14
2022-12-31T08:59:53.002Z,92.83
2022-12-31T09:03:16.884Z,92.93
2022-12-31T09:06:31.640Z,92.68
2022-12-31T09:09:51.252Z,92.59
2022-12-31T09:13:15.807Z,92.35
2022-12-31T09:16:30.313Z,91.69
2022-12-31T09:19:32.190Z,92.05
2022-12-31T09:22:34.255Z,91.99
2022-12-31T09:25:45.104Z,91.91
2022-12-31T09:29:17.330Z,91.66
2022-12-31T09:32:19.094Z,91.69
2022-12-31T09:35:53.844Z,91.50
2022-12-31T09:39:12.832Z,91.64
2022-12-31T09:42:52.157Z,91.16
2022-12-31T09:46:08.979Z,91.46
2022-12-31T09:49:22.963Z,91.46
2022-12-31T09:52:36.593Z,91.10
2022-12-31T09:56:02.141Z,91.40
2022-12-31T09:59:17.905Z,91.33
2022-12-31T10:02:41.893Z,91.05
2022-12-31T10:06:21.299Z,90.98
2022-12-31T10:09:41.704Z,90.89
2022-12-31T10:13:15.699Z,91.48
2022-12-31T10:16:39.497Z,91.75
2022-12-31T10:20:17.000Z,91.22
2022-12-31T10:23:37.334Z,91.23
2022-12-31T10:27:00.310Z,91.17
2022-12-31T10:30:17.314Z,91.23
2022-12-31T17:11:31.393Z,100.00
2022-12-31T17:14:48.508Z,100.00
2022-12-31T17:17:55.148Z,100.00
2022-12-31T17:21:06.955Z,100.00
2022-12-31T17:24:13.056Z,100.00
2022-12-31T17:27:15.067Z,100.00
2022-12-31T17:30:34.994Z,100.00
2022-12-31T17:33:37.060Z,99.88
2022-12-31T17:36:40.670Z,99.26
2022-12-31T17:39:45.499Z,99.33
2022-12-31T17:42:47.548Z,99.06
2022-12-31T17:45:54.323Z,99.03
2022-12-31T17:49:01.625Z,98.50
2022-12-31T17:52:03.673Z,98.51
2022-12-31T17:55:05.835Z,98.41
2022-12-31T17:58:15.363Z,98.84
2022-12-31T18:01:20.315Z,98.61
2022-12-31T18:04:22.277Z,98.03
2022-12-31T18:07:24.121Z,97.99
2022-12-31T18:10:27.817Z,98.00
2022-12-31T18:13:30.849Z,97.69
2022-12-31T18:16:32.588Z,97.06
2022-12-31T18:22:56.395Z,96.99
2022-12-31T18:25:58.288Z,96.80
2022-12-31T18:29:11.134Z,96.69
2022-12-31T18:32:31.956Z,96.69
2022-12-31T18:36:07.027Z,96.90
2022-12-31T18:38:55.931Z,96.65
2022-12-31T18:41:57.858Z,96.94
2022-12-31T18:44:59.869Z,96.86
2022-12-31T18:48:01.875Z,96.76
2022-12-31T18:51:03.749Z,96.43
2022-12-31T18:54:06.973Z,96.45
2022-12-31T18:57:11.932Z,96.65
2022-12-31T19:00:14.344Z,96.39
2022-12-31T19:03:18.236Z,96.30
2022-12-31T19:06:20.237Z,96.38
2022-12-31T19:12:44.599Z,96.32
2022-12-31T19:15:49.663Z,96.19
2022-12-31T19:18:51.557Z,95.93
2022-12-31T19:21:53.409Z,95.77
2022-12-31T19:24:55.301Z,95.71
2022-12-31T19:27:57.200Z,95.55
2022-12-31T19:30:59.096Z,95.32
2022-12-31T19:34:00.877Z,95.24
2022-12-31T19:37:02.829Z,95.31
2022-12-31T19:40:05.323Z,95.50
2022-12-31T19:43:13.004Z,95.53
2022-12-31T19:46:17.707Z,95.75
2022-12-31T19:49:19.690Z,95.55
2022-12-31T19:52:21.489Z,95.87
2022-12-31T19:55:27.979Z,95.85
2022-12-31T19:58:29.927Z,96.14
2022-12-31T20:01:31.877Z,96.04
2022-12-31T20:04:33.819Z,96.31
2022-12-31T20:07:35.860Z,96.26
2022-12-31T20:10:37.874Z,95.95
2022-12-31T20:13:40.446Z,96.14
2022-12-31T20:16:42.435Z,95.99
2022-12-31T20:19:44.536Z,96.03
2022-12-31T20:22:46.369Z,96.03
2022-12-31T20:25:57.288Z,95.76
2022-12-31T20:28:59.486Z,96.05
2022-12-31T20:32:03.163Z,96.17
2022-12-31T20:35:05.532Z,96.25
2022-12-31T20:38:07.427Z,95.99
2022-12-31T20:41:12.322Z,95.93
2022-12-31T20:44:14.185Z,96.19
2022-12-31T20:47:15.949Z,96.13
2022-12-31T20:50:18.297Z,96.29
2022-12-31T20:53:20.204Z,96.06
2022-12-31T20:56:23.342Z,96.17
2022-12-31T20:59:25.177Z,96.15
2022-12-31T21:02:40.900Z,96.30
2022-12-31T21:05:54.137Z,96.41
2022-12-31T21:08:57.252Z,96.51
2022-12-31T21:12:25.261Z,96.47
2022-12-31T21:15:27.583Z,96.85
2022-12-31T21:18:29.491Z,96.79
2022-12-31T21:21:31.777Z,96.82
2022-12-31T21:24:33.687Z,97.10
2022-12-31T21:27:36.097Z,97.20
2022-12-31T21:30:41.781Z,97.13
2022-12-31T21:33:45.273Z,97.30
2022-12-31T21:36:47.306Z,97.32
2022-12-31T21:39:49.228Z,97.13
2022-12-31T21:42:51.233Z,97.19
2022-12-31T21:46:04.636Z,97.27
2022-12-31T21:49:07.448Z,97.16
2022-12-31T21:52:30.459Z,97.37
2022-12-31T21:55:50.954Z,97.16
2022-12-31T21:59:14.928Z,97.28
2022-12-31T22:02:35.320Z,97.50
2022-12-31T22:05:39.719Z,97.45
2022-12-31T22:08:44.084Z,97.68
2022-12-31T22:11:46.265Z,97.31
2022-12-31T22:15:14.389Z,97.79
2022-12-31T22:18:10.782Z,97.40
2022-12-31T22:21:19.466Z,97.55
2022-12-31T22:24:22.549Z,98.10
2022-12-31T22:27:29.570Z,98.06
2022-12-31T22:30:33.635Z,97.97
2022-12-31T22:33:35.758Z,98.31
2022-12-31T22:36:37.580Z,98.26
2022-12-31T22:39:43.860Z,98.12
2022-12-31T22:42:46.614Z,98.25
2022-12-31T22:45:48.495Z,97.94
2022-12-31T22:48:51.443Z,98.28
2022-12-31T22:51:58.709Z,98.70
2022-12-31T22:55:02.740Z,98.37
2022-12-31T22:58:04.628Z,99.19
2022-12-31T23:01:08.173Z,98.95
2022-12-31T23:04:10.065Z,98.68
2022-12-31T23:07:12.043Z,99.58
2022-12-31T23:10:32.313Z,99.67
2022-12-31T23:14:01.323Z,99.14
2022-12-31T23:17:30.080Z,99.22
2022-12-31T23:20:52.423Z,99.05
2022-12-31T23:23:54.345Z,99.49
2022-12-31T23:26:57.387Z,99.14
2022-12-31T23:29:59.118Z,99.27
2022-12-31T23:33:01.062Z,99.69
2022-12-31T23:36:06.826Z,99.83
2022-12-31T23:39:08.727Z,99.98
2022-12-31T23:42:10.740Z,99.35
2022-12-31T23:45:12.578Z,99.47
2022-12-31T23:48:14.444Z,99.49
2022-12-31T23:51:16.362Z,99.68
2022-12-31T23:54:18.239Z,99.40
2022-12-31T23:57:20.227Z,99.57
